Aviation Digital Data Service (ADDS)

Output produced by METARs form (0257 UTC 22 April 2019)
found at http://www.aviationweather.gov/metar/data/
 
METAR text: FACT 220200Z 15016KT 9999 FEW035 17/10 Q1022 NOSIG
Conditions at: FACT (CAPETOWN/DF MALA, ZA) observed 0200 UTC 22 April 2019
Temperature: 17.0°C (63°F)
Dewpoint: 10.0°C (50°F) [RH = 63%]
Pressure (altimeter): 30.18 inches Hg (1022.0 mb)
Winds: from the SSE (150 degrees) at 18 MPH (16 knots; 8.2 m/s)
Visibility: 6 or more miles (10+ km)
Ceiling: at least 12,000 feet AGL
Clouds: few clouds at 3500 feet AGL
Weather: no significant weather observed at this time

METAR text: FACT 220100Z 16014KT 9999 FEW040 17/10 Q1022 NOSIG
Conditions at: FACT (CAPETOWN/DF MALA, ZA) observed 0100 UTC 22 April 2019
Temperature: 17.0°C (63°F)
Dewpoint: 10.0°C (50°F) [RH = 63%]
Pressure (altimeter): 30.18 inches Hg (1022.0 mb)
Winds: from the SSE (160 degrees) at 16 MPH (14 knots; 7.2 m/s)
Visibility: 6 or more miles (10+ km)
Ceiling: at least 12,000 feet AGL
Clouds: few clouds at 4000 feet AGL
Weather: no significant weather observed at this time

METAR text: FACT 220000Z 17015KT CAVOK 17/10 Q1023 NOSIG
Conditions at: FACT (CAPETOWN/DF MALA, ZA) observed 0000 UTC 22 April 2019
Temperature: 17.0°C (63°F)
Dewpoint: 10.0°C (50°F) [RH = 63%]
Pressure (altimeter): 30.21 inches Hg (1023.0 mb)
Winds: from the S (170 degrees) at 17 MPH (15 knots; 7.7 m/s)
Visibility: 6 or more miles (10+ km)
Ceiling: ceiling and visibility are OK
Clouds: unknown
Weather: no significant weather observed at this time

METAR text: FACT 212300Z 14015KT CAVOK 17/10 Q1022 NOSIG
Conditions at: FACT (CAPETOWN/DF MALA, ZA) observed 2300 UTC 21 April 2019
Temperature: 17.0°C (63°F)
Dewpoint: 10.0°C (50°F) [RH = 63%]
Pressure (altimeter): 30.18 inches Hg (1022.0 mb)
Winds: from the SE (140 degrees) at 17 MPH (15 knots; 7.7 m/s)
Visibility: 6 or more miles (10+ km)
Ceiling: ceiling and visibility are OK
Clouds: unknown
Weather: no significant weather observed at this time

METAR text: FACT 212200Z 16018KT CAVOK 17/10 Q1022 NOSIG
Conditions at: FACT (CAPETOWN/DF MALA, ZA) observed 2200 UTC 21 April 2019
Temperature: 17.0°C (63°F)
Dewpoint: 10.0°C (50°F) [RH = 63%]
Pressure (altimeter): 30.18 inches Hg (1022.0 mb)
Winds: from the SSE (160 degrees) at 21 MPH (18 knots; 9.3 m/s)
Visibility: 6 or more miles (10+ km)
Ceiling: ceiling and visibility are OK
Clouds: unknown
Weather: no significant weather observed at this time

METAR text: FACT 212100Z 14014KT CAVOK 17/10 Q1023 NOSIG
Conditions at: FACT (CAPETOWN/DF MALA, ZA) observed 2100 UTC 21 April 2019
Temperature: 17.0°C (63°F)
Dewpoint: 10.0°C (50°F) [RH = 63%]
Pressure (altimeter): 30.21 inches Hg (1023.0 mb)
Winds: from the SE (140 degrees) at 16 MPH (14 knots; 7.2 m/s)
Visibility: 6 or more miles (10+ km)
Ceiling: ceiling and visibility are OK
Clouds: unknown
Weather: no significant weather observed at this time

METAR text: FACT 212000Z 15018KT 9999 FEW040 18/10 Q1022 NOSIG
Conditions at: FACT (CAPETOWN/DF MALA, ZA) observed 2000 UTC 21 April 2019
Temperature: 18.0°C (64°F)
Dewpoint: 10.0°C (50°F) [RH = 59%]
Pressure (altimeter): 30.18 inches Hg (1022.0 mb)
Winds: from the SSE (150 degrees) at 21 MPH (18 knots; 9.3 m/s)
Visibility: 6 or more miles (10+ km)
Ceiling: at least 12,000 feet AGL
Clouds: few clouds at 4000 feet AGL
Weather: no significant weather observed at this time

METAR text: FACT 211900Z 15021KT CAVOK 17/10 Q1022 NOSIG
Conditions at: FACT (CAPETOWN/DF MALA, ZA) observed 1900 UTC 21 April 2019
Temperature: 17.0°C (63°F)
Dewpoint: 10.0°C (50°F) [RH = 63%]
Pressure (altimeter): 30.18 inches Hg (1022.0 mb)
Winds: from the SSE (150 degrees) at 24 MPH (21 knots; 10.8 m/s)
Visibility: 6 or more miles (10+ km)
Ceiling: ceiling and visibility are OK
Clouds: unknown
Weather: no significant weather observed at this time

METAR text: FACT 211800Z 15023KT CAVOK 18/11 Q1021 NOSIG
Conditions at: FACT (CAPETOWN/DF MALA, ZA) observed 1800 UTC 21 April 2019
Temperature: 18.0°C (64°F)
Dewpoint: 11.0°C (52°F) [RH = 64%]
Pressure (altimeter): 30.15 inches Hg (1021.0 mb)
Winds: from the SSE (150 degrees) at 26 MPH (23 knots; 11.8 m/s)
Visibility: 6 or more miles (10+ km)
Ceiling: ceiling and visibility are OK
Clouds: unknown
Weather: no significant weather observed at this time

METAR text: FACT 211700Z 14016KT CAVOK 18/11 Q1021 NOSIG
Conditions at: FACT (CAPETOWN/DF MALA, ZA) observed 1700 UTC 21 April 2019
Temperature: 18.0°C (64°F)
Dewpoint: 11.0°C (52°F) [RH = 64%]
Pressure (altimeter): 30.15 inches Hg (1021.0 mb)
Winds: from the SE (140 degrees) at 18 MPH (16 knots; 8.2 m/s)
Visibility: 6 or more miles (10+ km)
Ceiling: ceiling and visibility are OK
Clouds: unknown
Weather: no significant weather observed at this time

METAR text: FACT 211600Z 15019KT 9999 FEW030 20/11 Q1020 NOSIG
Conditions at: FACT (CAPETOWN/DF MALA, ZA) observed 1600 UTC 21 April 2019
Temperature: 20.0°C (68°F)
Dewpoint: 11.0°C (52°F) [RH = 56%]
Pressure (altimeter): 30.12 inches Hg (1020.0 mb)
Winds: from the SSE (150 degrees) at 22 MPH (19 knots; 9.8 m/s)
Visibility: 6 or more miles (10+ km)
Ceiling: at least 12,000 feet AGL
Clouds: few clouds at 3000 feet AGL
Weather: no significant weather observed at this time

METAR text: FACT 211524Z 15019G29KT 9999 FEW030 21/11 Q1020 NOSIG
Conditions at: FACT (CAPETOWN/DF MALA, ZA) observed 1524 UTC 21 April 2019
Temperature: 21.0°C (70°F)
Dewpoint: 11.0°C (52°F) [RH = 53%]
Pressure (altimeter): 30.12 inches Hg (1020.0 mb)
Winds: from the SSE (150 degrees) at 22 MPH (19 knots; 9.8 m/s)
gusting to 33 MPH (29 knots; 14.9 m/s)
Visibility: 6 or more miles (10+ km)
Ceiling: at least 12,000 feet AGL
Clouds: few clouds at 3000 feet AGL
Weather: no significant weather observed at this time

METAR text: FACT 211500Z 15020KT 9999 FEW030 21/11 Q1020 NOSIG
Conditions at: FACT (CAPETOWN/DF MALA, ZA) observed 1500 UTC 21 April 2019
Temperature: 21.0°C (70°F)
Dewpoint: 11.0°C (52°F) [RH = 53%]
Pressure (altimeter): 30.12 inches Hg (1020.0 mb)
Winds: from the SSE (150 degrees) at 23 MPH (20 knots; 10.3 m/s)
Visibility: 6 or more miles (10+ km)
Ceiling: at least 12,000 feet AGL
Clouds: few clouds at 3000 feet AGL
Weather: no significant weather observed at this time

METAR text: FACT 211423Z 15020G31KT 9999 FEW030 21/11 Q1020 NOSIG
Conditions at: FACT (CAPETOWN/DF MALA, ZA) observed 1423 UTC 21 April 2019
Temperature: 21.0°C (70°F)
Dewpoint: 11.0°C (52°F) [RH = 53%]
Pressure (altimeter): 30.12 inches Hg (1020.0 mb)
Winds: from the SSE (150 degrees) at 23 MPH (20 knots; 10.3 m/s)
gusting to 36 MPH (31 knots; 15.9 m/s)
Visibility: 6 or more miles (10+ km)
Ceiling: at least 12,000 feet AGL
Clouds: few clouds at 3000 feet AGL
Weather: no significant weather observed at this time

METAR text: FACT 211400Z 14022KT 9999 FEW030 22/11 Q1020 NOSIG
Conditions at: FACT (CAPETOWN/DF MALA, ZA) observed 1400 UTC 21 April 2019
Temperature: 22.0°C (72°F)
Dewpoint: 11.0°C (52°F) [RH = 50%]
Pressure (altimeter): 30.12 inches Hg (1020.0 mb)
Winds: from the SE (140 degrees) at 25 MPH (22 knots; 11.3 m/s)
Visibility: 6 or more miles (10+ km)
Ceiling: at least 12,000 feet AGL
Clouds: few clouds at 3000 feet AGL
Weather: no significant weather observed at this time

METAR text: FACT 211326Z 15022G33KT 9999 FEW030 22/11 Q1020 NOSIG
Conditions at: FACT (CAPETOWN/DF MALA, ZA) observed 1326 UTC 21 April 2019
Temperature: 22.0°C (72°F)
Dewpoint: 11.0°C (52°F) [RH = 50%]
Pressure (altimeter): 30.12 inches Hg (1020.0 mb)
Winds: from the SSE (150 degrees) at 25 MPH (22 knots; 11.3 m/s)
gusting to 38 MPH (33 knots; 17.0 m/s)
Visibility: 6 or more miles (10+ km)
Ceiling: at least 12,000 feet AGL
Clouds: few clouds at 3000 feet AGL
Weather: no significant weather observed at this time

METAR text: FACT 211325Z 15022G33KT 9999 R19/P1500 FEW030 22/11 Q1020 NOSIG
Conditions at: FACT (CAPETOWN/DF MALA, ZA) observed 1325 UTC 21 April 2019
Temperature: 22.0°C (72°F)
Dewpoint: 11.0°C (52°F) [RH = 50%]
Pressure (altimeter): 30.12 inches Hg (1020.0 mb)
Winds: from the SSE (150 degrees) at 25 MPH (22 knots; 11.3 m/s)
gusting to 38 MPH (33 knots; 17.0 m/s)
Visibility: 6 or more miles (10+ km)
Ceiling: at least 12,000 feet AGL
Clouds: few clouds at 3000 feet AGL
Weather: no significant weather observed at this time

METAR text: FACT 211300Z 17021KT 9999 FEW025 21/12 Q1020 NOSIG
Conditions at: FACT (CAPETOWN/DF MALA, ZA) observed 1300 UTC 21 April 2019
Temperature: 21.0°C (70°F)
Dewpoint: 12.0°C (54°F) [RH = 56%]
Pressure (altimeter): 30.12 inches Hg (1020.0 mb)
Winds: from the S (170 degrees) at 24 MPH (21 knots; 10.8 m/s)
Visibility: 6 or more miles (10+ km)
Ceiling: at least 12,000 feet AGL
Clouds: few clouds at 2500 feet AGL
Weather: no significant weather observed at this time

METAR text: FACT 211200Z 14020KT 9999 FEW025 23/10 Q1021 NOSIG
Conditions at: FACT (CAPETOWN/DF MALA, ZA) observed 1200 UTC 21 April 2019
Temperature: 23.0°C (73°F)
Dewpoint: 10.0°C (50°F) [RH = 44%]
Pressure (altimeter): 30.15 inches Hg (1021.0 mb)
Winds: from the SE (140 degrees) at 23 MPH (20 knots; 10.3 m/s)
Visibility: 6 or more miles (10+ km)
Ceiling: at least 12,000 feet AGL
Clouds: few clouds at 2500 feet AGL
Weather: no significant weather observed at this time

METAR text: FACT 211100Z 15021G31KT 9999 FEW025 22/11 Q1022 NOSIG
Conditions at: FACT (CAPETOWN/DF MALA, ZA) observed 1100 UTC 21 April 2019
Temperature: 22.0°C (72°F)
Dewpoint: 11.0°C (52°F) [RH = 50%]
Pressure (altimeter): 30.18 inches Hg (1022.0 mb)
Winds: from the SSE (150 degrees) at 24 MPH (21 knots; 10.8 m/s)
gusting to 36 MPH (31 knots; 15.9 m/s)
Visibility: 6 or more miles (10+ km)
Ceiling: at least 12,000 feet AGL
Clouds: few clouds at 2500 feet AGL
Weather: no significant weather observed at this time

METAR text: FACT 211000Z 15020G33KT CAVOK 21/11 Q1022 NOSIG
Conditions at: FACT (CAPETOWN/DF MALA, ZA) observed 1000 UTC 21 April 2019
Temperature: 21.0°C (70°F)
Dewpoint: 11.0°C (52°F) [RH = 53%]
Pressure (altimeter): 30.18 inches Hg (1022.0 mb)
Winds: from the SSE (150 degrees) at 23 MPH (20 knots; 10.3 m/s)
gusting to 38 MPH (33 knots; 17.0 m/s)
Visibility: 6 or more miles (10+ km)
Ceiling: ceiling and visibility are OK
Clouds: unknown
Weather: no significant weather observed at this time

METAR text: FACT 210900Z 15018KT CAVOK 20/11 Q1022 NOSIG
Conditions at: FACT (CAPETOWN/DF MALA, ZA) observed 0900 UTC 21 April 2019
Temperature: 20.0°C (68°F)
Dewpoint: 11.0°C (52°F) [RH = 56%]
Pressure (altimeter): 30.18 inches Hg (1022.0 mb)
Winds: from the SSE (150 degrees) at 21 MPH (18 knots; 9.3 m/s)
Visibility: 6 or more miles (10+ km)
Ceiling: ceiling and visibility are OK
Clouds: unknown
Weather: no significant weather observed at this time

METAR text: FACT 210800Z 15017KT CAVOK 19/11 Q1022 NOSIG
Conditions at: FACT (CAPETOWN/DF MALA, ZA) observed 0800 UTC 21 April 2019
Temperature: 19.0°C (66°F)
Dewpoint: 11.0°C (52°F) [RH = 60%]
Pressure (altimeter): 30.18 inches Hg (1022.0 mb)
Winds: from the SSE (150 degrees) at 20 MPH (17 knots; 8.7 m/s)
Visibility: 6 or more miles (10+ km)
Ceiling: ceiling and visibility are OK
Clouds: unknown
Weather: no significant weather observed at this time

METAR text: FACT 210700Z 15014KT CAVOK 18/10 Q1022 NOSIG
Conditions at: FACT (CAPETOWN/DF MALA, ZA) observed 0700 UTC 21 April 2019
Temperature: 18.0°C (64°F)
Dewpoint: 10.0°C (50°F) [RH = 59%]
Pressure (altimeter): 30.18 inches Hg (1022.0 mb)
Winds: from the SSE (150 degrees) at 16 MPH (14 knots; 7.2 m/s)
Visibility: 6 or more miles (10+ km)
Ceiling: ceiling and visibility are OK
Clouds: unknown
Weather: no significant weather observed at this time

METAR text: FACT 210657Z 15014KT CAVOK 18/10 Q1022 NOSIG
Conditions at: FACT (CAPETOWN/DF MALA, ZA) observed 0657 UTC 21 April 2019
Temperature: 18.0°C (64°F)
Dewpoint: 10.0°C (50°F) [RH = 59%]
Pressure (altimeter): 30.18 inches Hg (1022.0 mb)
Winds: from the SSE (150 degrees) at 16 MPH (14 knots; 7.2 m/s)
Visibility: 6 or more miles (10+ km)
Ceiling: ceiling and visibility are OK
Clouds: unknown
Weather: no significant weather observed at this time

METAR text: FACT 210600Z 16017KT CAVOK 16/10 Q1021 NOSIG
Conditions at: FACT (CAPETOWN/DF MALA, ZA) observed 0600 UTC 21 April 2019
Temperature: 16.0°C (61°F)
Dewpoint: 10.0°C (50°F) [RH = 68%]
Pressure (altimeter): 30.15 inches Hg (1021.0 mb)
Winds: from the SSE (160 degrees) at 20 MPH (17 knots; 8.7 m/s)
Visibility: 6 or more miles (10+ km)
Ceiling: ceiling and visibility are OK
Clouds: unknown
Weather: no significant weather observed at this time

METAR text: FACT 210500Z 16014KT CAVOK 16/09 Q1021 NOSIG
Conditions at: FACT (CAPETOWN/DF MALA, ZA) observed 0500 UTC 21 April 2019
Temperature: 16.0°C (61°F)
Dewpoint: 9.0°C (48°F) [RH = 63%]
Pressure (altimeter): 30.15 inches Hg (1021.0 mb)
Winds: from the SSE (160 degrees) at 16 MPH (14 knots; 7.2 m/s)
Visibility: 6 or more miles (10+ km)
Ceiling: ceiling and visibility are OK
Clouds: unknown
Weather: no significant weather observed at this time

METAR text: FACT 210400Z 16017KT CAVOK 16/09 Q1021 NOSIG
Conditions at: FACT (CAPETOWN/DF MALA, ZA) observed 0400 UTC 21 April 2019
Temperature: 16.0°C (61°F)
Dewpoint: 9.0°C (48°F) [RH = 63%]
Pressure (altimeter): 30.15 inches Hg (1021.0 mb)
Winds: from the SSE (160 degrees) at 20 MPH (17 knots; 8.7 m/s)
Visibility: 6 or more miles (10+ km)
Ceiling: ceiling and visibility are OK
Clouds: unknown
Weather: no significant weather observed at this time

METAR text: FACT 210300Z 15014KT CAVOK 16/10 Q1021 NOSIG
Conditions at: FACT (CAPETOWN/DF MALA, ZA) observed 0300 UTC 21 April 2019
Temperature: 16.0°C (61°F)
Dewpoint: 10.0°C (50°F) [RH = 68%]
Pressure (altimeter): 30.15 inches Hg (1021.0 mb)
Winds: from the SSE (150 degrees) at 16 MPH (14 knots; 7.2 m/s)
Visibility: 6 or more miles (10+ km)
Ceiling: ceiling and visibility are OK
Clouds: unknown
Weather: no significant weather observed at this time

METAR text: FACT 210200Z 16010KT CAVOK 15/10 Q1021 NOSIG
Conditions at: FACT (CAPETOWN/DF MALA, ZA) observed 0200 UTC 21 April 2019
Temperature: 15.0°C (59°F)
Dewpoint: 10.0°C (50°F) [RH = 72%]
Pressure (altimeter): 30.15 inches Hg (1021.0 mb)
Winds: from the SSE (160 degrees) at 12 MPH (10 knots; 5.1 m/s)
Visibility: 6 or more miles (10+ km)
Ceiling: ceiling and visibility are OK
Clouds: unknown
Weather: no significant weather observed at this time

METAR text: FACT 210100Z 16014KT CAVOK 15/10 Q1022 NOSIG
Conditions at: FACT (CAPETOWN/DF MALA, ZA) observed 0100 UTC 21 April 2019
Temperature: 15.0°C (59°F)
Dewpoint: 10.0°C (50°F) [RH = 72%]
Pressure (altimeter): 30.18 inches Hg (1022.0 mb)
Winds: from the SSE (160 degrees) at 16 MPH (14 knots; 7.2 m/s)
Visibility: 6 or more miles (10+ km)
Ceiling: ceiling and visibility are OK
Clouds: unknown
Weather: no significant weather observed at this time

METAR text: FACT 210000Z 17010KT CAVOK 15/11 Q1022 NOSIG
Conditions at: FACT (CAPETOWN/DF MALA, ZA) observed 0000 UTC 21 April 2019
Temperature: 15.0°C (59°F)
Dewpoint: 11.0°C (52°F) [RH = 77%]
Pressure (altimeter): 30.18 inches Hg (1022.0 mb)
Winds: from the S (170 degrees) at 12 MPH (10 knots; 5.1 m/s)
Visibility: 6 or more miles (10+ km)
Ceiling: ceiling and visibility are OK
Clouds: unknown
Weather: no significant weather observed at this time

METAR text: FACT 202300Z 17010KT CAVOK 15/11 Q1022 NOSIG
Conditions at: FACT (CAPETOWN/DF MALA, ZA) observed 2300 UTC 20 April 2019
Temperature: 15.0°C (59°F)
Dewpoint: 11.0°C (52°F) [RH = 77%]
Pressure (altimeter): 30.18 inches Hg (1022.0 mb)
Winds: from the S (170 degrees) at 12 MPH (10 knots; 5.1 m/s)
Visibility: 6 or more miles (10+ km)
Ceiling: ceiling and visibility are OK
Clouds: unknown
Weather: no significant weather observed at this time

METAR text: FACT 202200Z 17011KT CAVOK 15/11 Q1022 NOSIG
Conditions at: FACT (CAPETOWN/DF MALA, ZA) observed 2200 UTC 20 April 2019
Temperature: 15.0°C (59°F)
Dewpoint: 11.0°C (52°F) [RH = 77%]
Pressure (altimeter): 30.18 inches Hg (1022.0 mb)
Winds: from the S (170 degrees) at 13 MPH (11 knots; 5.7 m/s)
Visibility: 6 or more miles (10+ km)
Ceiling: ceiling and visibility are OK
Clouds: unknown
Weather: no significant weather observed at this time

METAR text: FACT 202100Z 17011KT 9999 FEW040 16/12 Q1023 NOSIG
Conditions at: FACT (CAPETOWN/DF MALA, ZA) observed 2100 UTC 20 April 2019
Temperature: 16.0°C (61°F)
Dewpoint: 12.0°C (54°F) [RH = 77%]
Pressure (altimeter): 30.21 inches Hg (1023.0 mb)
Winds: from the S (170 degrees) at 13 MPH (11 knots; 5.7 m/s)
Visibility: 6 or more miles (10+ km)
Ceiling: at least 12,000 feet AGL
Clouds: few clouds at 4000 feet AGL
Weather: no significant weather observed at this time

METAR text: FACT 202000Z 17012KT 9999 FEW040 16/12 Q1023 NOSIG
Conditions at: FACT (CAPETOWN/DF MALA, ZA) observed 2000 UTC 20 April 2019
Temperature: 16.0°C (61°F)
Dewpoint: 12.0°C (54°F) [RH = 77%]
Pressure (altimeter): 30.21 inches Hg (1023.0 mb)
Winds: from the S (170 degrees) at 14 MPH (12 knots; 6.2 m/s)
Visibility: 6 or more miles (10+ km)
Ceiling: at least 12,000 feet AGL
Clouds: few clouds at 4000 feet AGL
Weather: no significant weather observed at this time

METAR text: FACT 201900Z 19010KT 9999 FEW040 15/13 Q1022 NOSIG
Conditions at: FACT (CAPETOWN/DF MALA, ZA) observed 1900 UTC 20 April 2019
Temperature: 15.0°C (59°F)
Dewpoint: 13.0°C (55°F) [RH = 88%]
Pressure (altimeter): 30.18 inches Hg (1022.0 mb)
Winds: from the S (190 degrees) at 12 MPH (10 knots; 5.1 m/s)
Visibility: 6 or more miles (10+ km)
Ceiling: at least 12,000 feet AGL
Clouds: few clouds at 4000 feet AGL
Weather: no significant weather observed at this time

METAR text: FACT 201800Z 19010KT 9999 FEW040 16/12 Q1022 NOSIG
Conditions at: FACT (CAPETOWN/DF MALA, ZA) observed 1800 UTC 20 April 2019
Temperature: 16.0°C (61°F)
Dewpoint: 12.0°C (54°F) [RH = 77%]
Pressure (altimeter): 30.18 inches Hg (1022.0 mb)
Winds: from the S (190 degrees) at 12 MPH (10 knots; 5.1 m/s)
Visibility: 6 or more miles (10+ km)
Ceiling: at least 12,000 feet AGL
Clouds: few clouds at 4000 feet AGL
Weather: no significant weather observed at this time

METAR text: FACT 201700Z 20011KT 9999 SCT040 16/13 Q1022 NOSIG
Conditions at: FACT (CAPETOWN/DF MALA, ZA) observed 1700 UTC 20 April 2019
Temperature: 16.0°C (61°F)
Dewpoint: 13.0°C (55°F) [RH = 82%]
Pressure (altimeter): 30.18 inches Hg (1022.0 mb)
Winds: from the SSW (200 degrees) at 13 MPH (11 knots; 5.7 m/s)
Visibility: 6 or more miles (10+ km)
Ceiling: at least 12,000 feet AGL
Clouds: scattered clouds at 4000 feet AGL
Weather: no significant weather observed at this time

METAR text: FACT 201600Z 17007KT 9999 FEW035 16/13 Q1021 NOSIG
Conditions at: FACT (CAPETOWN/DF MALA, ZA) observed 1600 UTC 20 April 2019
Temperature: 16.0°C (61°F)
Dewpoint: 13.0°C (55°F) [RH = 82%]
Pressure (altimeter): 30.15 inches Hg (1021.0 mb)
Winds: from the S (170 degrees) at 8 MPH (7 knots; 3.6 m/s)
Visibility: 6 or more miles (10+ km)
Ceiling: at least 12,000 feet AGL
Clouds: few clouds at 3500 feet AGL
Weather: no significant weather observed at this time

METAR text: FACT 201500Z 16010KT 9999 BKN030 17/13 Q1021 NOSIG
Conditions at: FACT (CAPETOWN/DF MALA, ZA) observed 1500 UTC 20 April 2019
Temperature: 17.0°C (63°F)
Dewpoint: 13.0°C (55°F) [RH = 77%]
Pressure (altimeter): 30.15 inches Hg (1021.0 mb)
Winds: from the SSE (160 degrees) at 12 MPH (10 knots; 5.1 m/s)
Visibility: 6 or more miles (10+ km)
Ceiling: 3000 feet AGL
Clouds: broken clouds at 3000 feet AGL
Weather: no significant weather observed at this time

Forecast for: FACT (CAPETOWN/DF MALA, ZA)
Text: TAF FACT 212200Z 2200/2306 15018KT CAVOK TX25/2212Z TN15/2205Z
Forecast period: 0000 UTC 22 April 2019 to 0600 UTC 23 April 2019
Forecast type: FROM: standard forecast or significant change
Winds: from the SSE (150 degrees) at 21 MPH (18 knots; 9.3 m/s)
Visibility: 6 or more miles 10+ km)
Ceiling: unknown
Clouds: missing
Weather: no significant weather forecast for this period